sensor_id;sensor_type;location;lat;lon;timestamp;pressure;altitude;pressure_sealevel;temperature;humidity
50774;BME280;36745;48.544;8.918;2024-03-02T00:00:36;96225.22;;;3.44;100.00
50774;BME280;36745;48.544;8.918;2024-03-02T00:03:55;96214.66;;;3.46;99.90
50774;BME280;36745;48.544;8.918;2024-03-02T00:07:15;96222.69;;;3.53;99.94
50774;BME280;36745;48.544;8.918;2024-03-02T00:10:39;96218.94;;;3.47;99.29
50774;BME280;36745;48.544;8.918;2024-03-02T00:14:01;96228.09;;;3.37;99.61
50774;BME280;36745;48.544;8.918;2024-03-02T00:17:24;96224.53;;;3.40;99.78
50774;BME280;36745;48.544;8.918;2024-03-02T00:20:45;96221.81;;;3.40;100.00
50774;BME280;36745;48.544;8.918;2024-03-02T00:24:31;96220.75;;;3.34;100.00
50774;BME280;36745;48.544;8.918;2024-03-02T00:27:49;96224.47;;;3.44;100.00
50774;BME280;36745;48.544;8.918;2024-03-02T00:31:10;96211.25;;;3.42;100.00
50774;BME280;36745;48.544;8.918;2024-03-02T00:34:33;96219.56;;;3.35;100.00
50774;BME280;36745;48.544;8.918;2024-03-02T00:37:54;96216.41;;;3.36;99.90
50774;BME280;36745;48.544;8.918;2024-03-02T00:41:21;96225.34;;;3.37;100.00
50774;BME280;36745;48.544;8.918;2024-03-02T00:44:42;96215.44;;;3.27;100.00
50774;BME280;36745;48.544;8.918;2024-03-02T00:48:02;96221.38;;;3.22;100.00
50774;BME280;36745;48.544;8.918;2024-03-02T00:51:25;96219.03;;;3.24;100.00
50774;BME280;36745;48.544;8.918;2024-03-02T00:54:45;96220.53;;;3.25;100.00
50774;BME280;36745;48.544;8.918;2024-03-02T00:58:05;96224.94;;;3.19;100.00
50774;BME280;36745;48.544;8.918;2024-03-02T01:01:25;96224.88;;;3.22;100.00
50774;BME280;36745;48.544;8.918;2024-03-02T01:04:45;96227.19;;;3.24;100.00
50774;BME280;36745;48.544;8.918;2024-03-02T01:08:05;96224.81;;;3.26;100.00
50774;BME280;36745;48.544;8.918;2024-03-02T01:11:25;96215.38;;;3.30;100.00
50774;BME280;36745;48.544;8.918;2024-03-02T01:14:44;96218.38;;;3.36;100.00
50774;BME280;36745;48.544;8.918;2024-03-02T01:18:04;96223.97;;;3.29;100.00
50774;BME280;36745;48.544;8.918;2024-03-02T01:21:24;96216.63;;;3.26;100.00
50774;BME280;36745;48.544;8.918;2024-03-02T01:24:44;96214.88;;;3.16;100.00
50774;BME280;36745;48.544;8.918;2024-03-02T01:28:04;96220.34;;;3.16;100.00
50774;BME280;36745;48.544;8.918;2024-03-02T01:31:24;96213.50;;;3.08;100.00
50774;BME280;36745;48.544;8.918;2024-03-02T01:34:43;96202.78;;;2.97;100.00
50774;BME280;36745;48.544;8.918;2024-03-02T01:38:04;96208.66;;;2.95;100.00
50774;BME280;36745;48.544;8.918;2024-03-02T01:41:26;96208.41;;;2.86;100.00
50774;BME280;36745;48.544;8.918;2024-03-02T01:44:46;96207.59;;;2.89;100.00
50774;BME280;36745;48.544;8.918;2024-03-02T01:48:06;96202.97;;;2.86;100.00
50774;BME280;36745;48.544;8.918;2024-03-02T01:51:26;96201.09;;;2.83;100.00
50774;BME280;36745;48.544;8.918;2024-03-02T01:54:46;96189.84;;;2.81;100.00
50774;BME280;36745;48.544;8.918;2024-03-02T01:58:06;96193.81;;;2.77;100.00
50774;BME280;36745;48.544;8.918;2024-03-02T02:01:26;96205.47;;;2.77;100.00
50774;BME280;36745;48.544;8.918;2024-03-02T02:04:45;96209.47;;;2.73;100.00
50774;BME280;36745;48.544;8.918;2024-03-02T02:08:05;96199.25;;;2.57;100.00
50774;BME280;36745;48.544;8.918;2024-03-02T02:11:25;96201.19;;;2.57;100.00
50774;BME280;36745;48.544;8.918;2024-03-02T02:14:49;96189.66;;;2.49;100.00
50774;BME280;36745;48.544;8.918;2024-03-02T02:18:09;96197.47;;;2.47;100.00
50774;BME280;36745;48.544;8.918;2024-03-02T02:21:29;96192.06;;;2.43;100.00
50774;BME280;36745;48.544;8.918;2024-03-02T02:24:49;96187.88;;;2.39;100.00
50774;BME280;36745;48.544;8.918;2024-03-02T02:28:09;96189.19;;;2.31;100.00
50774;BME280;36745;48.544;8.918;2024-03-02T02:31:39;96182.50;;;2.12;100.00
50774;BME280;36745;48.544;8.918;2024-03-02T02:34:59;96170.75;;;2.19;100.00
50774;BME280;36745;48.544;8.918;2024-03-02T02:38:19;96179.53;;;2.03;100.00
50774;BME280;36745;48.544;8.918;2024-03-02T02:41:39;96174.97;;;1.96;100.00
50774;BME280;36745;48.544;8.918;2024-03-02T02:44:59;96172.78;;;1.88;100.00
50774;BME280;36745;48.544;8.918;2024-03-02T02:48:18;96173.13;;;1.90;100.00
50774;BME280;36745;48.544;8.918;2024-03-02T02:51:38;96174.97;;;1.96;100.00
50774;BME280;36745;48.544;8.918;2024-03-02T02:54:58;96179.69;;;1.92;100.00
50774;BME280;36745;48.544;8.918;2024-03-02T02:58:17;96181.25;;;1.93;100.00
50774;BME280;36745;48.544;8.918;2024-03-02T03:01:37;96179.69;;;1.92;100.00
50774;BME280;36745;48.544;8.918;2024-03-02T03:04:57;96176.28;;;1.88;100.00
50774;BME280;36745;48.544;8.918;2024-03-02T03:08:17;96177.75;;;1.66;100.00
50774;BME280;36745;48.544;8.918;2024-03-02T03:11:37;96172.16;;;1.77;100.00
50774;BME280;36745;48.544;8.918;2024-03-02T03:14:57;96169.78;;;1.79;100.00
50774;BME280;36745;48.544;8.918;2024-03-02T03:18:17;96174.22;;;1.69;100.00
50774;BME280;36745;48.544;8.918;2024-03-02T03:21:37;96178.56;;;1.63;100.00
50774;BME280;36745;48.544;8.918;2024-03-02T03:24:56;96181.84;;;1.51;100.00
50774;BME280;36745;48.544;8.918;2024-03-02T03:28:16;96179.47;;;1.53;100.00
50774;BME280;36745;48.544;8.918;2024-03-02T03:31:36;96177.13;;;1.55;100.00
50774;BME280;36745;48.544;8.918;2024-03-02T03:34:56;96182.38;;;1.39;100.00
50774;BME280;36745;48.544;8.918;2024-03-02T03:38:16;96186.00;;;1.29;100.00
50774;BME280;36745;48.544;8.918;2024-03-02T03:41:36;96180.97;;;1.27;100.00
50774;BME280;36745;48.544;8.918;2024-03-02T03:44:55;96182.13;;;1.30;100.00
50774;BME280;36745;48.544;8.918;2024-03-02T03:48:15;96183.00;;;1.19;100.00
50774;BME280;36745;48.544;8.918;2024-03-02T03:51:35;96173.47;;;1.38;100.00
50774;BME280;36745;48.544;8.918;2024-03-02T03:54:55;96177.50;;;1.26;100.00
50774;BME280;36745;48.544;8.918;2024-03-02T03:58:15;96178.31;;;1.23;100.00
50774;BME280;36745;48.544;8.918;2024-03-02T04:01:37;96176.06;;;1.18;100.00
50774;BME280;36745;48.544;8.918;2024-03-02T04:04:56;96174.00;;;1.26;100.00
50774;BME280;36745;48.544;8.918;2024-03-02T04:08:16;96172.19;;;1.16;100.00
50774;BME280;36745;48.544;8.918;2024-03-02T04:11:36;96171.44;;;1.15;100.00
50774;BME280;36745;48.544;8.918;2024-03-02T04:14:56;96170.63;;;1.18;100.00
50774;BME280;36745;48.544;8.918;2024-03-02T04:18:15;96170.06;;;1.31;100.00
50774;BME280;36745;48.544;8.918;2024-03-02T04:21:35;96177.63;;;1.16;100.00
50774;BME280;36745;48.544;8.918;2024-03-02T04:24:55;96184.66;;;1.13;100.00
50774;BME280;36745;48.544;8.918;2024-03-02T04:28:15;96182.00;;;1.06;100.00
50774;BME280;36745;48.544;8.918;2024-03-02T04:31:34;96186.41;;;0.93;100.00
50774;BME280;36745;48.544;8.918;2024-03-02T04:34:54;96195.00;;;0.88;100.00
50774;BME280;36745;48.544;8.918;2024-03-02T04:38:14;96184.72;;;1.06;100.00
50774;BME280;36745;48.544;8.918;2024-03-02T04:41:34;96189.06;;;1.00;100.00
50774;BME280;36745;48.544;8.918;2024-03-02T04:44:54;96185.97;;;0.98;100.00
50774;BME280;36745;48.544;8.918;2024-03-02T04:48:15;96186.41;;;0.93;100.00
50774;BME280;36745;48.544;8.918;2024-03-02T04:51:34;96188.69;;;0.98;100.00
50774;BME280;36745;48.544;8.918;2024-03-02T04:54:54;96182.53;;;0.94;100.00
50774;BME280;36745;48.544;8.918;2024-03-02T04:58:43;96186.41;;;0.97;100.00
50774;BME280;36745;48.544;8.918;2024-03-02T05:02:02;96188.69;;;0.98;100.00
50774;BME280;36745;48.544;8.918;2024-03-02T05:05:22;96193.72;;;1.00;100.00
50774;BME280;36745;48.544;8.918;2024-03-02T05:08:42;96199.22;;;0.93;100.00
50774;BME280;36745;48.544;8.918;2024-03-02T05:12:04;96189.25;;;0.82;100.00
50774;BME280;36745;48.544;8.918;2024-03-02T05:15:24;96198.59;;;0.78;100.00
50774;BME280;36745;48.544;8.918;2024-03-02T05:18:44;96201.97;;;0.89;100.00
50774;BME280;36745;48.544;8.918;2024-03-02T05:22:04;96208.13;;;0.93;100.00
50774;BME280;36745;48.544;8.918;2024-03-02T05:25:23;96212.06;;;0.89;100.00
50774;BME280;36745;48.544;8.918;2024-03-02T05:28:43;96208.22;;;0.86;100.00
50774;BME280;36745;48.544;8.918;2024-03-02T05:32:03;96214.44;;;0.83;100.00
50774;BME280;36745;48.544;8.918;2024-03-02T05:35:22;96211.44;;;0.74;100.00
50774;BME280;36745;48.544;8.918;2024-03-02T05:38:42;96220.75;;;0.73;100.00
50774;BME280;36745;48.544;8.918;2024-03-02T05:42:02;96219.34;;;0.58;100.00
50774;BME280;36745;48.544;8.918;2024-03-02T05:45:22;96212.66;;;0.66;100.00
50774;BME280;36745;48.544;8.918;2024-03-02T05:48:42;96209.94;;;0.66;100.00
50774;BME280;36745;48.544;8.918;2024-03-02T05:52:02;96217.16;;;0.83;100.00
50774;BME280;36745;48.544;8.918;2024-03-02T05:55:23;96218.34;;;0.78;100.00
50774;BME280;36745;48.544;8.918;2024-03-02T05:58:42;96211.50;;;0.67;100.00
50774;BME280;36745;48.544;8.918;2024-03-02T06:02:26;96216.84;;;0.74;100.00
50774;BME280;36745;48.544;8.918;2024-03-02T06:05:46;96214.50;;;0.76;100.00
50774;BME280;36745;48.544;8.918;2024-03-02T06:09:09;96221.13;;;0.75;100.00
50774;BME280;36745;48.544;8.918;2024-03-02T06:12:31;96225.00;;;0.74;100.00
50774;BME280;36745;48.544;8.918;2024-03-02T06:15:52;96227.66;;;0.81;100.00
50774;BME280;36745;48.544;8.918;2024-03-02T06:19:12;96225.31;;;0.79;100.00
50774;BME280;36745;48.544;8.918;2024-03-02T06:22:31;96221.00;;;0.86;100.00
50774;BME280;36745;48.544;8.918;2024-03-02T06:25:51;96229.09;;;0.89;100.00
50774;BME280;36745;48.544;8.918;2024-03-02T06:29:11;96228.28;;;0.92;100.00
50774;BME280;36745;48.544;8.918;2024-03-02T06:32:31;96225.44;;;1.06;100.00
50774;BME280;36745;48.544;8.918;2024-03-02T06:35:50;96232.53;;;0.97;100.00
50774;BME280;36745;48.544;8.918;2024-03-02T06:39:10;96230.03;;;1.09;100.00
50774;BME280;36745;48.544;8.918;2024-03-02T06:42:32;96233.19;;;1.08;100.00
50774;BME280;36745;48.544;8.918;2024-03-02T06:45:52;96237.34;;;1.16;100.00
50774;BME280;36745;48.544;8.918;2024-03-02T06:49:12;96239.59;;;1.21;100.00
50774;BME280;36745;48.544;8.918;2024-03-02T06:52:32;96241.94;;;1.22;100.00
50774;BME280;36745;48.544;8.918;2024-03-02T06:55:52;96238.72;;;1.31;100.00
50774;BME280;36745;48.544;8.918;2024-03-02T06:59:11;96244.53;;;1.33;100.00
50774;BME280;36745;48.544;8.918;2024-03-02T07:02:31;96246.66;;;1.49;100.00
50774;BME280;36745;48.544;8.918;2024-03-02T07:05:51;96240.97;;;1.40;100.00
50774;BME280;36745;48.544;8.918;2024-03-02T07:09:11;96238.00;;;1.57;100.00
50774;BME280;36745;48.544;8.918;2024-03-02T07:12:31;96244.13;;;1.65;100.00
50774;BME280;36745;48.544;8.918;2024-03-02T07:15:51;96251.88;;;1.66;100.00
50774;BME280;36745;48.544;8.918;2024-03-02T07:19:22;96248.00;;;1.64;100.00
50774;BME280;36745;48.544;8.918;2024-03-02T07:22:42;96233.50;;;1.74;100.00
50774;BME280;36745;48.544;8.918;2024-03-02T07:26:02;96235.88;;;1.72;100.00
50774;BME280;36745;48.544;8.918;2024-03-02T07:29:22;96234.97;;;1.82;100.00
50774;BME280;36745;48.544;8.918;2024-03-02T07:32:42;96234.06;;;1.92;100.00
50774;BME280;36745;48.544;8.918;2024-03-02T07:36:05;96238.94;;;2.04;100.00
50774;BME280;36745;48.544;8.918;2024-03-02T07:39:25;96225.59;;;2.14;100.00
50774;BME280;36745;48.544;8.918;2024-03-02T07:42:45;96232.00;;;2.27;100.00
50774;BME280;36745;48.544;8.918;2024-03-02T07:46:05;96230.91;;;2.44;100.00
50774;BME280;36745;48.544;8.918;2024-03-02T07:49:25;96239.56;;;2.62;100.00
50774;BME280;36745;48.544;8.918;2024-03-02T07:52:45;96229.50;;;2.82;100.00
50774;BME280;36745;48.544;8.918;2024-03-02T07:56:05;96231.53;;;2.98;100.00
50774;BME280;36745;48.544;8.918;2024-03-02T07:59:25;96240.63;;;2.91;100.00
50774;BME280;36745;48.544;8.918;2024-03-02T08:02:45;96247.00;;;3.05;100.00
50774;BME280;36745;48.544;8.918;2024-03-02T08:06:05;96247.63;;;3.12;100.00
50774;BME280;36745;48.544;8.918;2024-03-02T08:09:24;96241.34;;;3.15;100.00
50774;BME280;36745;48.544;8.918;2024-03-02T08:12:45;96240.44;;;3.22;100.00
50774;BME280;36745;48.544;8.918;2024-03-02T08:16:05;96242.97;;;3.32;100.00
50774;BME280;36745;48.544;8.918;2024-03-02T08:19:27;96243.66;;;3.56;100.00
50774;BME280;36745;48.544;8.918;2024-03-02T08:22:46;96242.56;;;3.90;100.00
50774;BME280;36745;48.544;8.918;2024-03-02T08:26:06;96240.91;;;4.12;100.00
50774;BME280;36745;48.544;8.918;2024-03-02T08:29:26;96235.81;;;4.30;100.00
50774;BME280;36745;48.544;8.918;2024-03-02T08:32:46;96231.31;;;4.56;100.00
50774;BME280;36745;48.544;8.918;2024-03-02T08:36:06;96236.50;;;4.67;100.00
50774;BME280;36745;48.544;8.918;2024-03-02T08:39:28;96229.84;;;4.68;100.00
50774;BME280;36745;48.544;8.918;2024-03-02T08:42:48;96232.47;;;4.71;100.00
50774;BME280;36745;48.544;8.918;2024-03-02T08:46:08;96235.63;;;5.02;100.00
50774;BME280;36745;48.544;8.918;2024-03-02T08:49:28;96219.69;;;5.13;100.00
50774;BME280;36745;48.544;8.918;2024-03-02T08:52:48;96217.25;;;5.31;100.00
50774;BME280;36745;48.544;8.918;2024-03-02T08:56:07;96219.19;;;5.60;100.00
50774;BME280;36745;48.544;8.918;2024-03-02T08:59:27;96212.69;;;5.82;100.00
50774;BME280;36745;48.544;8.918;2024-03-02T09:02:47;96220.28;;;6.04;100.00
50774;BME280;36745;48.544;8.918;2024-03-02T09:06:07;96219.06;;;6.17;100.00
50774;BME280;36745;48.544;8.918;2024-03-02T09:09:26;96208.22;;;6.26;100.00
50774;BME280;36745;48.544;8.918;2024-03-02T09:12:46;96209.13;;;6.36;100.00
50774;BME280;36745;48.544;8.918;2024-03-02T09:16:06;96201.00;;;6.45;100.00
50774;BME280;36745;48.544;8.918;2024-03-02T09:19:27;96194.75;;;6.45;100.00
50774;BME280;36745;48.544;8.918;2024-03-02T09:22:47;96196.16;;;6.62;100.00
50774;BME280;36745;48.544;8.918;2024-03-02T09:26:08;96187.03;;;6.65;100.00
50774;BME280;36745;48.544;8.918;2024-03-02T09:29:27;96190.19;;;6.76;98.35
50774;BME280;36745;48.544;8.918;2024-03-02T09:32:48;96190.94;;;6.89;97.87
50774;BME280;36745;48.544;8.918;2024-03-02T09:36:22;96196.41;;;6.89;97.12
50774;BME280;36745;48.544;8.918;2024-03-02T09:39:43;96190.81;;;7.14;97.61
50774;BME280;36745;48.544;8.918;2024-03-02T09:43:03;96183.38;;;7.37;96.79
50774;BME280;36745;48.544;8.918;2024-03-02T09:46:23;96183.81;;;7.57;94.29
50774;BME280;36745;48.544;8.918;2024-03-02T09:49:43;96179.09;;;7.36;93.19
50774;BME280;36745;48.544;8.918;2024-03-02T09:53:03;96175.28;;;7.55;92.62
50774;BME280;36745;48.544;8.918;2024-03-02T09:56:23;96170.28;;;7.63;92.71
50774;BME280;36745;48.544;8.918;2024-03-02T09:59:43;96170.00;;;7.91;93.43
50774;BME280;36745;48.544;8.918;2024-03-02T10:03:04;96170.22;;;8.15;92.42
50774;BME280;36745;48.544;8.918;2024-03-02T10:06:26;96170.13;;;8.28;91.60
50774;BME280;36745;48.544;8.918;2024-03-02T10:09:47;96163.19;;;8.45;90.61
50774;BME280;36745;48.544;8.918;2024-03-02T10:13:08;96163.19;;;8.45;88.71
50774;BME280;36745;48.544;8.918;2024-03-02T10:16:28;96156.81;;;8.57;87.36
50774;BME280;36745;48.544;8.918;2024-03-02T10:19:47;96157.09;;;8.59;88.51
50774;BME280;36745;48.544;8.918;2024-03-02T10:23:14;96145.56;;;8.73;88.10
50774;BME280;36745;48.544;8.918;2024-03-02T10:26:33;96140.81;;;8.92;86.21
50774;BME280;36745;48.544;8.918;2024-03-02T10:29:53;96135.16;;;9.14;88.29
50774;BME280;36745;48.544;8.918;2024-03-02T10:33:13;96135.63;;;9.21;86.03
50774;BME280;36745;48.544;8.918;2024-03-02T10:36:37;96130.84;;;9.40;86.83
50774;BME280;36745;48.544;8.918;2024-03-02T10:39:57;96129.00;;;9.46;85.15
50774;BME280;36745;48.544;8.918;2024-03-02T10:43:23;96128.44;;;9.24;80.40
50774;BME280;36745;48.544;8.918;2024-03-02T10:46:45;96124.75;;;9.36;81.25
50774;BME280;36745;48.544;8.918;2024-03-02T10:50:07;96125.63;;;9.60;80.58
50774;BME280;36745;48.544;8.918;2024-03-02T10:53:27;96117.69;;;9.53;78.80
50774;BME280;36745;48.544;8.918;2024-03-02T10:56:47;96118.25;;;9.76;80.29
50774;BME280;36745;48.544;8.918;2024-03-02T11:00:08;96102.28;;;9.89;78.25
50774;BME280;36745;48.544;8.918;2024-03-02T11:03:35;96100.09;;;10.02;80.78
50774;BME280;36745;48.544;8.918;2024-03-02T11:07:07;96098.00;;;10.30;80.56
50774;BME280;36745;48.544;8.918;2024-03-02T11:10:29;96091.44;;;10.51;79.43
50774;BME280;36745;48.544;8.918;2024-03-02T11:13:54;96080.38;;;10.75;79.99
50774;BME280;36745;48.544;8.918;2024-03-02T11:17:16;96084.31;;;10.98;78.85
50774;BME280;36745;48.544;8.918;2024-03-02T11:20:38;96081.41;;;11.45;78.55
50774;BME280;36745;48.544;8.918;2024-03-02T11:23:58;96072.13;;;12.42;78.28
50774;BME280;36745;48.544;8.918;2024-03-02T11:31:06;96062.09;;;13.57;73.63
50774;BME280;36745;48.544;8.918;2024-03-02T11:34:33;96055.22;;;14.15;71.67
50774;BME280;36745;48.544;8.918;2024-03-02T11:37:54;96042.00;;;14.84;71.13
50774;BME280;36745;48.544;8.918;2024-03-02T11:41:14;96036.53;;;15.39;69.30
50774;BME280;36745;48.544;8.918;2024-03-02T11:44:33;96041.66;;;15.91;69.10
50774;BME280;36745;48.544;8.918;2024-03-02T11:47:54;96038.47;;;16.56;66.53
50774;BME280;36745;48.544;8.918;2024-03-02T11:51:14;96034.16;;;16.66;62.65
50774;BME280;36745;48.544;8.918;2024-03-02T11:54:33;96025.69;;;16.99;63.44
50774;BME280;36745;48.544;8.918;2024-03-02T11:57:59;96020.34;;;16.96;59.96
50774;BME280;36745;48.544;8.918;2024-03-02T12:01:20;96006.75;;;17.28;59.42
50774;BME280;36745;48.544;8.918;2024-03-02T12:04:40;96008.59;;;17.55;58.03
50774;BME280;36745;48.544;8.918;2024-03-02T12:08:11;95999.94;;;17.64;54.45
50774;BME280;36745;48.544;8.918;2024-03-02T12:11:31;95997.69;;;17.87;55.64
50774;BME280;36745;48.544;8.918;2024-03-02T12:14:52;95995.41;;;18.15;56.79
50774;BME280;36745;48.544;8.918;2024-03-02T12:18:12;95987.47;;;17.71;51.35
50774;BME280;36745;48.544;8.918;2024-03-02T12:21:32;95983.72;;;18.17;53.62
50774;BME280;36745;48.544;8.918;2024-03-02T12:24:52;95979.88;;;18.44;52.80
50774;BME280;36745;48.544;8.918;2024-03-02T12:28:12;95974.31;;;18.44;51.95
50774;BME280;36745;48.544;8.918;2024-03-02T12:31:32;95970.94;;;18.27;49.43
50774;BME280;36745;48.544;8.918;2024-03-02T12:34:51;95968.63;;;18.55;51.49
50774;BME280;36745;48.544;8.918;2024-03-02T12:38:12;95966.09;;;17.49;48.24
50774;BME280;36745;48.544;8.918;2024-03-02T12:41:32;95966.66;;;17.42;49.27
50774;BME280;36745;48.544;8.918;2024-03-02T12:44:52;95956.75;;;17.76;49.61
50774;BME280;36745;48.544;8.918;2024-03-02T12:48:14;95952.66;;;18.07;47.97
50774;BME280;36745;48.544;8.918;2024-03-02T12:51:35;95949.94;;;18.01;48.45
50774;BME280;36745;48.544;8.918;2024-03-02T12:54:55;95944.00;;;17.86;48.10
50774;BME280;36745;48.544;8.918;2024-03-02T12:58:22;95938.97;;;17.49;48.04
50774;BME280;36745;48.544;8.918;2024-03-02T13:01:50;95939.13;;;16.97;47.90
50774;BME280;36745;48.544;8.918;2024-03-02T13:05:10;95940.47;;;16.85;48.19
50774;BME280;36745;48.544;8.918;2024-03-02T13:08:30;95941.22;;;16.86;48.31
50774;BME280;36745;48.544;8.918;2024-03-02T13:11:51;95940.09;;;16.59;47.33
50774;BME280;36745;48.544;8.918;2024-03-02T13:15:10;95933.13;;;16.35;47.65
50774;BME280;36745;48.544;8.918;2024-03-02T13:18:30;95933.03;;;16.47;48.73
50774;BME280;36745;48.544;8.918;2024-03-02T13:21:50;95930.53;;;16.43;48.72
50774;BME280;36745;48.544;8.918;2024-03-02T13:25:10;95930.94;;;16.69;48.65
50774;BME280;36745;48.544;8.918;2024-03-02T13:28:30;95927.38;;;16.74;47.94
50774;BME280;36745;48.544;8.918;2024-03-02T13:31:50;95929.69;;;16.65;47.67
50774;BME280;36745;48.544;8.918;2024-03-02T13:35:11;95920.56;;;16.70;48.14
50774;BME280;36745;48.544;8.918;2024-03-02T13:38:33;95914.56;;;16.60;47.05
50774;BME280;36745;48.544;8.918;2024-03-02T13:41:53;95919.69;;;16.40;47.20
50774;BME280;36745;48.544;8.918;2024-03-02T13:45:21;95901.91;;;16.54;47.77
50774;BME280;36745;48.544;8.918;2024-03-02T13:48:41;95897.38;;;16.51;47.01
50774;BME280;36745;48.544;8.918;2024-03-02T13:52:05;95888.25;;;16.61;48.42
50774;BME280;36745;48.544;8.918;2024-03-02T13:55:30;95897.63;;;16.47;47.81
50774;BME280;36745;48.544;8.918;2024-03-02T13:58:50;95893.66;;;16.37;47.46
50774;BME280;36745;48.544;8.918;2024-03-02T14:02:09;95889.44;;;16.19;47.42
50774;BME280;36745;48.544;8.918;2024-03-02T14:05:31;95882.56;;;15.63;47.45
50774;BME280;36745;48.544;8.918;2024-03-02T14:08:50;95876.72;;;15.72;47.86
50774;BME280;36745;48.544;8.918;2024-03-02T14:12:10;95878.47;;;15.80;47.92
50774;BME280;36745;48.544;8.918;2024-03-02T14:15:33;95875.16;;;15.82;47.48
50774;BME280;36745;48.544;8.918;2024-03-02T14:18:53;95872.38;;;15.82;47.50
50774;BME280;36745;48.544;8.918;2024-03-02T14:22:12;95874.44;;;15.76;48.20
50774;BME280;36745;48.544;8.918;2024-03-02T14:25:36;95872.22;;;15.35;47.78
50774;BME280;36745;48.544;8.918;2024-03-02T14:28:55;95875.25;;;15.37;47.87
50774;BME280;36745;48.544;8.918;2024-03-02T14:32:15;95867.44;;;15.08;46.76
50774;BME280;36745;48.544;8.918;2024-03-02T14:35:35;95861.34;;;14.48;47.32
50774;BME280;36745;48.544;8.918;2024-03-02T14:38:55;95858.34;;;14.68;47.91
50774;BME280;36745;48.544;8.918;2024-03-02T14:42:14;95855.03;;;14.53;48.31
50774;BME280;36745;48.544;8.918;2024-03-02T14:45:34;95846.25;;;14.72;48.50
50774;BME280;36745;48.544;8.918;2024-03-02T14:48:54;95844.16;;;14.33;48.14
50774;BME280;36745;48.544;8.918;2024-03-02T14:52:14;95844.72;;;14.48;48.20
50774;BME280;36745;48.544;8.918;2024-03-02T14:55:34;95839.66;;;14.41;48.67
50774;BME280;36745;48.544;8.918;2024-03-02T14:58:53;95834.06;;;14.30;48.76
50774;BME280;36745;48.544;8.918;2024-03-02T15:02:13;95835.13;;;14.38;49.09
50774;BME280;36745;48.544;8.918;2024-03-02T15:05:33;95828.06;;;14.48;48.29
50774;BME280;36745;48.544;8.918;2024-03-02T15:08:53;95825.56;;;14.50;48.79
50774;BME280;36745;48.544;8.918;2024-03-02T15:12:14;95825.56;;;14.50;48.75
50774;BME280;36745;48.544;8.918;2024-03-02T15:15:33;95812.94;;;14.49;48.35
50774;BME280;36745;48.544;8.918;2024-03-02T15:18:53;95806.63;;;14.43;48.39
50774;BME280;36745;48.544;8.918;2024-03-02T15:22:13;95812.63;;;14.36;48.26
50774;BME280;36745;48.544;8.918;2024-03-02T15:25:33;95816.41;;;14.22;48.55
50774;BME280;36745;48.544;8.918;2024-03-02T15:28:52;95808.59;;;14.26;48.30
50774;BME280;36745;48.544;8.918;2024-03-02T15:32:14;95808.38;;;14.35;48.21
50774;BME280;36745;48.544;8.918;2024-03-02T15:35:34;95802.84;;;14.35;48.40
50774;BME280;36745;48.544;8.918;2024-03-02T15:38:54;95801.31;;;14.34;48.24
50774;BME280;36745;48.544;8.918;2024-03-02T15:42:13;95799.28;;;14.29;48.06
50774;BME280;36745;48.544;8.918;2024-03-02T15:45:33;95798.75;;;14.14;48.36
50774;BME280;36745;48.544;8.918;2024-03-02T15:48:53;95803.28;;;14.17;48.23
50774;BME280;36745;48.544;8.918;2024-03-02T15:52:13;95802.03;;;14.18;48.72
50774;BME280;36745;48.544;8.918;2024-03-02T15:55:36;95806.81;;;14.12;48.51
50774;BME280;36745;48.544;8.918;2024-03-02T15:58:56;95806.81;;;14.12;48.76
50774;BME280;36745;48.544;8.918;2024-03-02T16:02:16;95802.50;;;14.05;49.05
50774;BME280;36745;48.544;8.918;2024-03-02T16:05:36;95805.25;;;14.00;49.09
50774;BME280;36745;48.544;8.918;2024-03-02T16:08:55;95805.75;;;13.93;49.09
50774;BME280;36745;48.544;8.918;2024-03-02T16:12:16;95802.44;;;13.83;49.29
50774;BME280;36745;48.544;8.918;2024-03-02T16:15:36;95808.69;;;13.72;49.59
50774;BME280;36745;48.544;8.918;2024-03-02T16:18:56;95809.66;;;13.58;50.24
50774;BME280;36745;48.544;8.918;2024-03-02T16:22:16;95811.34;;;13.50;49.88
50774;BME280;36745;48.544;8.918;2024-03-02T16:25:35;95807.78;;;13.38;50.61
50774;BME280;36745;48.544;8.918;2024-03-02T16:28:56;95812.03;;;13.34;50.30
50774;BME280;36745;48.544;8.918;2024-03-02T16:32:16;95812.97;;;13.20;50.26
50774;BME280;36745;48.544;8.918;2024-03-02T16:35:36;95804.38;;;13.18;50.25
50774;BME280;36745;48.544;8.918;2024-03-02T16:38:56;95806.81;;;13.04;50.06
50774;BME280;36745;48.544;8.918;2024-03-02T16:42:15;95810.75;;;12.92;49.76
50774;BME280;36745;48.544;8.918;2024-03-02T16:45:35;95810.13;;;12.77;49.31
50774;BME280;36745;48.544;8.918;2024-03-02T16:48:55;95804.50;;;12.66;48.92
50774;BME280;36745;48.544;8.918;2024-03-02T16:52:15;95804.69;;;12.57;48.97
50774;BME280;36745;48.544;8.918;2024-03-02T16:55:36;95804.59;;;12.46;48.67
50774;BME280;36745;48.544;8.918;2024-03-02T16:58:56;95805.75;;;12.34;48.30
50774;BME280;36745;48.544;8.918;2024-03-02T17:02:15;95800.63;;;12.27;48.14
50774;BME280;36745;48.544;8.918;2024-03-02T17:05:35;95801.28;;;12.16;47.99
50774;BME280;36745;48.544;8.918;2024-03-02T17:08:55;95800.22;;;12.08;47.79
50774;BME280;36745;48.544;8.918;2024-03-02T17:12:15;95799.88;;;12.00;47.80
50774;BME280;36745;48.544;8.918;2024-03-02T17:15:34;95807.09;;;11.92;48.23
50774;BME280;36745;48.544;8.918;2024-03-02T17:18:54;95804.38;;;11.77;48.82
50774;BME280;36745;48.544;8.918;2024-03-02T17:22:14;95801.75;;;11.68;49.63
50774;BME280;36745;48.544;8.918;2024-03-02T17:25:34;95808.19;;;11.60;49.96
50774;BME280;36745;48.544;8.918;2024-03-02T17:28:53;95798.19;;;11.42;50.59
50774;BME280;36745;48.544;8.918;2024-03-02T17:32:14;95800.47;;;11.44;50.61
50774;BME280;36745;48.544;8.918;2024-03-02T17:35:33;95808.31;;;11.51;50.84
50774;BME280;36745;48.544;8.918;2024-03-02T17:38:54;95806.38;;;11.57;50.87
50774;BME280;36745;48.544;8.918;2024-03-02T17:42:15;95807.34;;;11.54;51.50
50774;BME280;36745;48.544;8.918;2024-03-02T17:45:34;95804.06;;;11.50;52.13
50774;BME280;36745;48.544;8.918;2024-03-02T17:48:54;95805.16;;;11.58;52.50